createdAt,value
2023-05-12T00:00:41.524Z,1071.00
2023-05-12T00:01:41.476Z,1045.00
2023-05-12T00:02:41.503Z,1064.00
2023-05-12T00:03:41.587Z,1041.00
2023-05-12T00:04:41.448Z,1065.00
2023-05-12T00:05:41.381Z,1066.00
2023-05-12T00:06:41.356Z,1057.00
2023-05-12T00:07:41.386Z,1052.00
2023-05-12T00:08:41.310Z,1065.00
2023-05-12T00:09:41.292Z,1050.00
2023-05-12T00:10:41.274Z,1048.00
2023-05-12T00:11:41.247Z,1043.00
2023-05-12T00:12:41.251Z,1051.00
2023-05-12T00:13:41.219Z,1021.00
2023-05-12T00:14:41.195Z,1015.00
2023-05-12T00:15:41.179Z,1041.00
2023-05-12T00:16:41.183Z,1026.00
2023-05-12T00:17:41.181Z,1020.00
2023-05-12T00:18:41.315Z,1003.00
2023-05-12T00:19:41.089Z,1012.00
2023-05-12T00:20:41.065Z,1031.00
2023-05-12T00:21:41.039Z,1031.00
2023-05-12T00:22:41.007Z,1039.00
2023-05-12T00:23:40.984Z,1041.00
2023-05-12T00:24:40.962Z,1053.00
2023-05-12T00:25:41.001Z,1021.00
2023-05-12T00:26:40.911Z,1020.00
2023-05-12T00:27:40.876Z,1042.00
2023-05-12T00:28:40.846Z,1019.00
2023-05-12T00:29:40.851Z,1027.00
2023-05-12T00:30:40.809Z,998.00
2023-05-12T00:31:41.662Z,1047.00
2023-05-12T00:32:40.788Z,1045.00
2023-05-12T00:33:40.749Z,1016.00
2023-05-12T00:34:40.729Z,1023.00
2023-05-12T00:35:40.713Z,1038.00
2023-05-12T00:36:40.772Z,1025.00
2023-05-12T00:37:40.670Z,982.00
2023-05-12T00:38:40.641Z,1015.00
2023-05-12T00:39:40.646Z,1002.00
2023-05-12T00:40:40.608Z,1002.00
2023-05-12T00:41:40.661Z,977.00
2023-05-12T00:42:40.557Z,1007.00
2023-05-12T00:43:40.548Z,1005.00
2023-05-12T00:44:40.573Z,1023.00
2023-05-12T00:45:40.505Z,1016.00
2023-05-12T00:46:40.470Z,997.00
2023-05-12T00:47:40.548Z,974.00
2023-05-12T00:48:40.435Z,1007.00
2023-05-12T00:49:40.419Z,985.00
2023-05-12T00:50:40.399Z,1016.00
2023-05-12T00:51:40.373Z,994.00
2023-05-12T00:52:40.353Z,994.00
2023-05-12T00:53:49.195Z,1032.00
2023-05-12T00:54:41.320Z,1033.00
2023-05-12T00:55:40.313Z,1016.00
2023-05-12T00:56:40.284Z,1010.00
2023-05-12T00:57:40.267Z,1000.00
2023-05-12T00:58:40.245Z,1001.00
2023-05-12T00:59:40.219Z,982.00
2023-05-12T01:00:40.208Z,1008.00
2023-05-12T01:01:40.284Z,1010.00
2023-05-12T01:02:40.227Z,1001.00
2023-05-12T01:03:40.248Z,1015.00
2023-05-12T01:04:40.165Z,1019.00
2023-05-12T01:05:40.124Z,1012.00
2023-05-12T01:06:40.087Z,976.00
2023-05-12T01:07:40.079Z,992.00
2023-05-12T01:08:40.060Z,1005.00
2023-05-12T01:09:40.045Z,965.00
2023-05-12T01:10:40.036Z,984.00
2023-05-12T01:11:40.025Z,976.00
2023-05-12T01:12:39.997Z,1003.00
2023-05-12T01:13:39.997Z,968.00
2023-05-12T01:14:39.973Z,987.00
2023-05-12T01:15:39.960Z,999.00
2023-05-12T01:16:40.024Z,1003.00
2023-05-12T01:17:40.108Z,992.00
2023-05-12T01:18:39.928Z,1002.00
2023-05-12T01:19:39.880Z,972.00
2023-05-12T01:20:39.875Z,992.00
2023-05-12T01:21:39.843Z,980.00
2023-05-12T01:22:39.823Z,980.00
2023-05-12T01:23:39.828Z,992.00
2023-05-12T01:24:39.793Z,968.00
2023-05-12T01:25:39.783Z,978.00
2023-05-12T01:26:39.761Z,981.00
2023-05-12T01:27:39.826Z,960.00
2023-05-12T01:28:39.721Z,974.00
2023-05-12T01:29:39.709Z,985.00
2023-05-12T01:30:39.686Z,979.00
2023-05-12T01:31:39.717Z,965.00
2023-05-12T01:32:39.723Z,950.00
2023-05-12T01:33:39.642Z,953.00
2023-05-12T01:34:39.661Z,956.00
2023-05-12T01:35:39.610Z,983.00
2023-05-12T01:36:39.598Z,982.00
2023-05-12T01:37:39.583Z,940.00
2023-05-12T01:38:39.599Z,967.00
2023-05-12T01:39:39.565Z,979.00
2023-05-12T01:40:39.620Z,962.00
2023-05-12T01:41:39.553Z,965.00
2023-05-12T01:42:39.544Z,963.00
2023-05-12T01:43:40.066Z,973.00
2023-05-12T01:44:39.536Z,968.00
2023-05-12T01:45:39.514Z,971.00
2023-05-12T01:46:39.534Z,966.00
2023-05-12T01:47:39.546Z,938.00
2023-05-12T01:48:39.505Z,919.00
2023-05-12T01:49:39.521Z,945.00
2023-05-12T01:50:39.503Z,940.00
2023-05-12T01:51:39.507Z,956.00
2023-05-12T01:52:39.488Z,952.00
2023-05-12T01:53:39.487Z,954.00
2023-05-12T01:54:39.480Z,936.00
2023-05-12T01:55:39.485Z,949.00
2023-05-12T01:56:39.491Z,940.00
2023-05-12T01:57:39.481Z,959.00
2023-05-12T01:58:39.511Z,946.00
2023-05-12T01:59:39.476Z,946.00
2023-05-12T02:00:39.478Z,961.00
2023-05-12T02:01:39.502Z,956.00
2023-05-12T02:02:40.895Z,958.00
2023-05-12T02:03:39.598Z,969.00
2023-05-12T02:04:39.417Z,937.00
2023-05-12T02:05:39.400Z,949.00
2023-05-12T02:06:39.382Z,948.00
2023-05-12T02:07:39.362Z,933.00
2023-05-12T02:08:39.340Z,932.00
2023-05-12T02:09:40.089Z,928.00
2023-05-12T02:10:39.300Z,935.00
2023-05-12T02:11:39.284Z,941.00
2023-05-12T02:12:39.352Z,932.00
2023-05-12T02:13:39.246Z,938.00
2023-05-12T02:14:39.228Z,943.00
2023-05-12T02:15:39.214Z,939.00
2023-05-12T02:16:39.229Z,939.00
2023-05-12T02:17:39.173Z,943.00
2023-05-12T02:18:39.284Z,934.00
2023-05-12T02:19:39.136Z,898.00
2023-05-12T02:20:39.106Z,930.00
2023-05-12T02:21:39.091Z,938.00
2023-05-12T02:22:39.086Z,936.00
2023-05-12T02:23:39.045Z,921.00
2023-05-12T02:24:39.014Z,930.00
2023-05-12T02:25:39.584Z,936.00
2023-05-12T02:26:39.049Z,929.00
2023-05-12T02:27:38.963Z,925.00
2023-05-12T02:28:39.083Z,930.00
2023-05-12T02:29:38.934Z,929.00
2023-05-12T02:30:38.904Z,918.00
2023-05-12T02:31:38.941Z,898.00
2023-05-12T02:32:38.903Z,897.00
2023-05-12T02:33:38.845Z,899.00
2023-05-12T02:34:38.832Z,927.00
2023-05-12T02:35:38.803Z,920.00
2023-05-12T02:36:38.782Z,920.00
2023-05-12T02:37:39.589Z,914.00
2023-05-12T02:38:38.742Z,919.00
2023-05-12T02:39:38.716Z,919.00
2023-05-12T02:40:38.696Z,893.00
2023-05-12T02:41:38.686Z,912.00
2023-05-12T02:42:38.729Z,906.00
2023-05-12T02:43:38.644Z,917.00
2023-05-12T02:44:38.628Z,893.00
2023-05-12T02:45:38.629Z,901.00
2023-05-12T02:46:38.605Z,884.00
2023-05-12T02:47:38.610Z,903.00
2023-05-12T02:48:38.544Z,913.00
2023-05-12T02:49:38.510Z,900.00
2023-05-12T02:50:38.504Z,896.00
2023-05-12T02:51:38.551Z,909.00
2023-05-12T02:52:38.497Z,901.00
2023-05-12T02:53:38.446Z,906.00
2023-05-12T02:54:38.430Z,894.00
2023-05-12T02:55:38.400Z,895.00
2023-05-12T02:56:39.092Z,905.00
2023-05-12T02:57:38.371Z,901.00
2023-05-12T02:58:38.379Z,906.00
2023-05-12T02:59:38.344Z,897.00
2023-05-12T03:00:38.320Z,904.00
2023-05-12T03:01:38.388Z,897.00
2023-05-12T03:02:38.391Z,896.00
2023-05-12T03:03:38.501Z,904.00
2023-05-12T03:04:38.356Z,892.00
2023-05-12T03:05:38.228Z,883.00
2023-05-12T03:06:38.216Z,874.00
2023-05-12T03:07:38.250Z,881.00
2023-05-12T03:08:38.181Z,895.00
2023-05-12T03:09:38.151Z,891.00
2023-05-12T03:10:38.127Z,892.00
2023-05-12T03:11:38.118Z,898.00
2023-05-12T03:12:38.091Z,883.00
2023-05-12T03:13:38.075Z,878.00
2023-05-12T03:14:38.054Z,880.00
2023-05-12T03:15:38.034Z,881.00
2023-05-12T03:16:38.051Z,891.00
2023-05-12T03:17:38.073Z,886.00
2023-05-12T03:18:37.988Z,866.00
2023-05-12T03:19:37.960Z,875.00
2023-05-12T03:20:37.954Z,892.00
2023-05-12T03:21:37.967Z,887.00
2023-05-12T03:22:37.987Z,876.00
2023-05-12T03:23:37.989Z,873.00
2023-05-12T03:24:38.052Z,859.00
2023-05-12T03:25:38.000Z,876.00
2023-05-12T03:26:38.007Z,872.00
2023-05-12T03:27:37.999Z,875.00
2023-05-12T03:28:38.013Z,860.00
2023-05-12T03:29:38.031Z,869.00
2023-05-12T03:30:38.034Z,868.00
2023-05-12T03:31:38.058Z,873.00
2023-05-12T03:32:38.068Z,874.00
2023-05-12T03:33:38.117Z,870.00
2023-05-12T03:34:38.086Z,865.00
2023-05-12T03:35:38.068Z,860.00
2023-05-12T03:36:38.076Z,864.00
2023-05-12T03:37:38.115Z,856.00
2023-05-12T03:38:38.105Z,860.00
2023-05-12T03:39:38.112Z,860.00
2023-05-12T03:40:38.123Z,845.00
2023-05-12T03:41:38.142Z,843.00
2023-05-12T03:42:38.147Z,856.00
2023-05-12T03:43:38.172Z,858.00
2023-05-12T03:44:38.189Z,845.00
2023-05-12T03:45:38.195Z,853.00
2023-05-12T03:46:38.341Z,856.00
2023-05-12T03:47:38.269Z,852.00
2023-05-12T03:48:38.211Z,866.00
2023-05-12T03:49:38.211Z,859.00
2023-05-12T03:50:38.616Z,851.00
2023-05-12T03:51:38.246Z,838.00
2023-05-12T03:52:38.265Z,851.00
2023-05-12T03:53:38.259Z,853.00
2023-05-12T03:54:39.114Z,846.00
2023-05-12T03:55:38.279Z,839.00
2023-05-12T03:56:38.291Z,831.00
2023-05-12T03:57:38.305Z,843.00
2023-05-12T03:58:38.317Z,848.00
2023-05-12T03:59:38.391Z,839.00
2023-05-12T04:00:38.969Z,845.00
2023-05-12T04:01:38.381Z,839.00
2023-05-12T04:02:38.532Z,840.00
2023-05-12T04:03:38.475Z,837.00
2023-05-12T04:04:38.408Z,843.00
2023-05-12T04:05:38.436Z,841.00
2023-05-12T04:06:38.450Z,832.00
2023-05-12T04:07:38.474Z,837.00
2023-05-12T04:08:41.695Z,828.00
2023-05-12T04:09:38.461Z,830.00
2023-05-12T04:10:38.449Z,840.00
2023-05-12T04:11:38.449Z,841.00
2023-05-12T04:12:38.476Z,836.00
2023-05-12T04:13:38.415Z,822.00
2023-05-12T04:14:42.915Z,836.00
2023-05-12T04:15:39.378Z,837.00
2023-05-12T04:16:38.379Z,839.00
2023-05-12T04:17:38.414Z,836.00
2023-05-12T04:18:38.380Z,844.00
2023-05-12T04:19:38.293Z,830.00
2023-05-12T04:20:38.271Z,827.00
2023-05-12T04:21:38.269Z,824.00
2023-05-12T04:22:38.237Z,828.00
2023-05-12T04:23:38.225Z,822.00
2023-05-12T04:24:38.213Z,830.00
2023-05-12T04:25:38.185Z,799.00
2023-05-12T04:26:38.172Z,810.00
2023-05-12T04:27:38.162Z,813.00
2023-05-12T04:28:38.140Z,800.00
2023-05-12T04:29:38.130Z,815.00
2023-05-12T04:30:38.122Z,807.00
2023-05-12T04:31:38.256Z,810.00
2023-05-12T04:32:38.114Z,811.00
2023-05-12T04:33:38.148Z,811.00
2023-05-12T04:34:38.103Z,815.00
2023-05-12T04:35:38.129Z,804.00
2023-05-12T04:36:38.167Z,812.00
2023-05-12T04:37:38.236Z,811.00
2023-05-12T04:38:38.184Z,810.00
2023-05-12T04:39:38.207Z,815.00
2023-05-12T04:40:38.222Z,803.00
2023-05-12T04:41:38.240Z,805.00
2023-05-12T04:42:38.317Z,795.00
2023-05-12T04:44:38.261Z,803.00
2023-05-12T04:45:38.244Z,796.00
2023-05-12T04:46:38.314Z,807.00
2023-05-12T04:47:38.242Z,796.00
2023-05-12T04:48:38.203Z,804.00
2023-05-12T04:49:38.181Z,793.00
2023-05-12T04:50:38.184Z,796.00
2023-05-12T04:51:38.225Z,786.00
2023-05-12T04:52:38.165Z,788.00
2023-05-12T04:53:38.177Z,780.00
2023-05-12T04:54:38.152Z,793.00
2023-05-12T04:55:38.185Z,782.00
2023-05-12T04:56:38.136Z,771.00
2023-05-12T04:57:38.132Z,778.00
2023-05-12T04:58:38.129Z,782.00
2023-05-12T04:59:39.297Z,786.00
2023-05-12T05:00:38.104Z,787.00
2023-05-12T05:01:38.145Z,788.00
2023-05-12T05:02:38.164Z,788.00
2023-05-12T05:03:38.152Z,776.00
2023-05-12T05:04:38.068Z,759.00
2023-05-12T05:05:38.653Z,779.00
2023-05-12T05:06:38.012Z,785.00
2023-05-12T05:07:38.007Z,771.00
2023-05-12T05:08:38.066Z,766.00
2023-05-12T05:09:38.015Z,771.00
2023-05-12T05:10:38.040Z,767.00
2023-05-12T05:11:37.951Z,761.00
2023-05-12T05:12:37.936Z,764.00
2023-05-12T05:13:37.921Z,756.00
2023-05-12T05:14:37.908Z,763.00
2023-05-12T05:15:37.921Z,761.00
2023-05-12T05:16:37.889Z,758.00
2023-05-12T05:17:37.918Z,761.00
2023-05-12T05:18:37.941Z,765.00
2023-05-12T05:19:50.866Z,758.00
2023-05-12T05:20:40.874Z,760.00
2023-05-12T05:21:38.729Z,760.00
2023-05-12T05:22:37.804Z,766.00
2023-05-12T05:23:37.818Z,772.00
2023-05-12T05:24:37.773Z,778.00
2023-05-12T05:25:37.744Z,741.00
2023-05-12T05:26:37.731Z,707.00
2023-05-12T05:27:37.729Z,666.00
2023-05-12T05:28:37.696Z,697.00
2023-05-12T05:29:37.686Z,653.00
2023-05-12T05:30:37.726Z,718.00
2023-05-12T05:31:37.774Z,672.00
2023-05-12T05:32:37.793Z,657.00
2023-05-12T05:33:37.623Z,665.00
2023-05-12T05:34:37.602Z,661.00
2023-05-12T05:35:37.565Z,701.00
2023-05-12T05:36:37.525Z,786.00
2023-05-12T05:37:37.511Z,823.00
2023-05-12T05:38:37.481Z,832.00
2023-05-12T05:39:37.458Z,869.00
2023-05-12T05:40:51.641Z,891.00
2023-05-12T05:41:38.437Z,894.00
2023-05-12T05:42:37.444Z,908.00
2023-05-12T05:43:37.357Z,939.00
2023-05-12T05:44:37.321Z,1006.00
2023-05-12T05:45:37.294Z,1106.00
2023-05-12T05:46:37.311Z,1133.00
2023-05-12T05:47:37.274Z,1193.00
2023-05-12T05:48:37.206Z,1219.00
2023-05-12T05:49:37.173Z,1261.00
2023-05-12T05:50:37.142Z,1301.00
2023-05-12T05:51:37.135Z,1337.00
2023-05-12T05:52:37.101Z,1376.00
2023-05-12T05:53:37.120Z,1384.00
2023-05-12T05:54:37.078Z,1432.00
2023-05-12T05:55:37.021Z,1462.00
2023-05-12T05:56:37.014Z,1472.00
2023-05-12T05:57:36.953Z,1494.00
2023-05-12T05:58:36.928Z,1532.00
2023-05-12T05:59:36.900Z,1576.00
2023-05-12T06:00:36.877Z,1628.00
2023-05-12T06:01:36.908Z,1664.00
2023-05-12T06:02:36.905Z,1683.00
2023-05-12T06:03:36.928Z,1684.00
2023-05-12T06:04:36.756Z,1712.00
2023-05-12T06:05:36.723Z,1724.00
2023-05-12T06:06:36.691Z,1759.00
2023-05-12T06:07:36.675Z,1793.00
2023-05-12T06:08:36.669Z,1811.00
2023-05-12T06:09:36.601Z,1849.00
2023-05-12T06:10:36.585Z,1884.00
2023-05-12T06:11:36.556Z,1922.00
2023-05-12T06:12:36.589Z,1935.00
2023-05-12T06:13:37.096Z,2012.00
2023-05-12T06:14:36.586Z,2060.00
2023-05-12T06:15:36.611Z,2121.00
2023-05-12T06:16:36.680Z,2133.00
2023-05-12T06:17:36.598Z,2142.00
2023-05-12T06:18:36.602Z,2154.00
2023-05-12T06:19:36.534Z,2167.00
2023-05-12T06:20:36.556Z,2187.00
2023-05-12T06:21:36.534Z,2201.00
2023-05-12T06:22:36.541Z,1984.00
2023-05-12T06:23:36.538Z,1860.00
2023-05-12T06:24:36.489Z,1697.00
2023-05-12T06:25:36.489Z,1539.00
2023-05-12T06:26:36.530Z,1567.00
2023-05-12T06:27:36.431Z,1623.00
2023-05-12T06:28:36.423Z,1574.00
2023-05-12T06:29:36.407Z,1533.00
2023-05-12T06:30:36.386Z,1563.00
2023-05-12T06:31:36.381Z,1572.00
2023-05-12T06:32:36.366Z,1590.00
2023-05-12T06:33:36.324Z,1620.00
2023-05-12T06:34:36.291Z,1638.00
2023-05-12T06:35:36.277Z,1633.00
2023-05-12T06:36:36.258Z,1672.00
2023-05-12T06:37:36.291Z,1696.00
2023-05-12T06:38:36.203Z,1716.00
2023-05-12T06:39:36.152Z,1746.00
2023-05-12T06:40:36.133Z,1757.00
2023-05-12T06:41:36.108Z,1809.00
2023-05-12T06:42:36.200Z,1839.00
2023-05-12T06:43:36.059Z,1855.00
2023-05-12T06:44:36.045Z,1870.00
2023-05-12T06:45:36.024Z,1888.00
2023-05-12T06:46:36.064Z,1912.00
2023-05-12T06:47:36.046Z,1933.00
2023-05-12T06:48:35.950Z,1937.00
2023-05-12T06:49:35.930Z,1957.00
2023-05-12T06:50:35.908Z,1980.00
2023-05-12T06:51:35.868Z,1980.00
2023-05-12T06:52:35.858Z,2000.00
2023-05-12T06:53:35.865Z,2028.00
2023-05-12T06:54:35.861Z,2055.00
2023-05-12T06:55:35.894Z,2068.00
2023-05-12T06:56:35.891Z,2106.00
2023-05-12T06:57:36.019Z,2110.00
2023-05-12T06:58:35.961Z,2111.00
2023-05-12T06:59:35.970Z,2131.00
2023-05-12T07:00:35.987Z,2157.00
2023-05-12T07:01:36.061Z,2164.00
2023-05-12T07:02:36.078Z,2231.00
2023-05-12T07:03:36.102Z,2223.00
2023-05-12T07:04:36.136Z,2244.00
2023-05-12T07:05:36.180Z,2278.00
2023-05-12T07:06:36.133Z,2262.00
2023-05-12T07:07:36.222Z,2308.00
2023-05-12T07:08:36.189Z,2385.00
2023-05-12T07:09:36.206Z,2432.00
2023-05-12T07:10:36.227Z,2423.00
2023-05-12T07:11:36.273Z,2457.00
2023-05-12T07:12:36.293Z,2452.00
2023-05-12T07:13:36.313Z,2474.00
2023-05-12T07:14:36.344Z,2487.00
2023-05-12T07:15:36.369Z,2511.00
2023-05-12T07:16:36.414Z,2540.00
2023-05-12T07:17:36.580Z,2500.00
2023-05-12T07:18:36.453Z,2474.00
2023-05-12T07:19:37.382Z,2474.00
2023-05-12T07:20:36.348Z,2433.00
2023-05-12T07:21:36.310Z,2254.00
2023-05-12T07:22:38.453Z,2068.00
2023-05-12T07:23:36.461Z,2031.00
2023-05-12T07:24:36.485Z,2057.00
2023-05-12T07:25:36.539Z,2060.00
2023-05-12T07:26:37.185Z,2037.00
2023-05-12T07:27:37.192Z,2069.00
2023-05-12T07:28:36.603Z,2094.00
2023-05-12T07:29:36.620Z,2101.00
2023-05-12T07:30:37.192Z,2122.00
2023-05-12T07:31:36.701Z,2136.00
2023-05-12T07:32:36.775Z,2147.00
2023-05-12T07:33:37.201Z,2163.00
2023-05-12T07:34:36.688Z,2186.00
2023-05-12T07:35:36.725Z,2190.00
2023-05-12T07:36:36.719Z,2229.00
2023-05-12T07:37:36.721Z,2272.00
2023-05-12T07:38:36.738Z,2256.00
2023-05-12T07:39:36.734Z,2255.00
2023-05-12T07:40:36.741Z,2286.00
2023-05-12T07:41:36.773Z,2291.00
2023-05-12T07:42:36.816Z,2317.00
2023-05-12T07:43:36.746Z,2321.00
2023-05-12T07:44:36.836Z,2364.00
2023-05-12T07:45:36.762Z,2468.00
2023-05-12T07:46:36.787Z,2500.00
2023-05-12T07:47:36.757Z,2517.00
2023-05-12T07:48:36.738Z,2520.00
2023-05-12T07:49:36.743Z,2546.00
2023-05-12T07:50:36.730Z,2569.00
2023-05-12T07:51:36.791Z,2573.00
2023-05-12T07:52:36.690Z,2585.00
2023-05-12T07:53:36.671Z,2594.00
2023-05-12T07:54:36.642Z,2605.00
2023-05-12T07:55:36.639Z,2619.00
2023-05-12T07:56:36.620Z,2635.00
2023-05-12T07:57:36.584Z,2648.00
2023-05-12T07:58:36.581Z,2655.00
2023-05-12T07:59:36.573Z,2680.00
2023-05-12T08:00:37.197Z,2687.00
2023-05-12T08:01:36.510Z,2692.00
2023-05-12T08:02:36.702Z,2733.00
2023-05-12T08:03:36.651Z,2723.00
2023-05-12T08:04:36.491Z,2727.00
2023-05-12T08:05:36.447Z,2734.00
2023-05-12T08:06:36.367Z,2737.00
2023-05-12T08:07:36.408Z,2746.00
2023-05-12T08:08:36.307Z,2757.00
2023-05-12T08:09:36.280Z,2775.00
2023-05-12T08:10:36.256Z,2793.00
2023-05-12T08:11:36.230Z,2854.00
2023-05-12T08:12:36.190Z,2800.00
2023-05-12T08:13:36.239Z,2716.00
2023-05-12T08:14:36.117Z,2663.00
2023-05-12T08:15:36.072Z,2587.00
2023-05-12T08:16:36.090Z,2453.00
2023-05-12T08:17:36.032Z,2465.00
2023-05-12T08:18:36.108Z,2302.00
2023-05-12T08:19:35.955Z,2175.00
2023-05-12T08:20:35.959Z,2116.00
2023-05-12T08:21:35.965Z,2151.00
2023-05-12T08:22:35.942Z,2192.00
2023-05-12T08:23:35.951Z,2154.00
2023-05-12T08:24:35.936Z,2159.00
2023-05-12T08:25:36.012Z,2152.00
2023-05-12T08:26:35.952Z,2132.00
2023-05-12T08:27:35.959Z,2131.00
2023-05-12T08:28:36.632Z,2112.00
2023-05-12T08:29:35.978Z,2109.00
2023-05-12T08:30:36.046Z,2103.00
2023-05-12T08:31:36.044Z,2110.00
2023-05-12T08:32:36.029Z,2091.00
2023-05-12T08:33:36.052Z,2099.00
2023-05-12T08:34:36.099Z,2077.00
2023-05-12T08:35:36.106Z,2073.00
2023-05-12T08:36:36.189Z,2078.00
2023-05-12T08:37:36.150Z,2076.00
2023-05-12T08:38:36.184Z,2072.00
2023-05-12T08:39:36.202Z,2076.00
2023-05-12T08:40:36.209Z,2067.00
2023-05-12T08:41:36.204Z,2044.00
2023-05-12T08:42:36.222Z,2050.00
2023-05-12T08:43:36.222Z,2050.00
2023-05-12T08:44:36.310Z,2043.00
2023-05-12T08:45:36.348Z,2049.00
2023-05-12T08:46:36.310Z,2030.00
2023-05-12T08:47:36.321Z,2026.00
2023-05-12T08:48:36.285Z,2024.00
2023-05-12T08:49:36.362Z,2002.00
2023-05-12T08:50:36.273Z,2007.00
2023-05-12T08:51:36.235Z,2002.00
2023-05-12T08:52:36.214Z,1993.00
2023-05-12T08:53:36.199Z,1988.00
2023-05-12T08:54:48.630Z,1988.00
2023-05-12T08:55:37.145Z,1988.00
2023-05-12T08:57:36.951Z,1982.00
2023-05-12T08:58:41.495Z,1989.00
2023-05-12T08:59:36.982Z,1990.00
2023-05-12T09:00:36.022Z,1989.00
2023-05-12T09:01:36.923Z,1992.00
2023-05-12T09:02:51.332Z,1988.00
2023-05-12T09:03:36.886Z,1989.00
2023-05-12T09:04:35.883Z,1989.00
2023-05-12T09:05:35.776Z,1974.00
2023-05-12T09:06:35.759Z,1978.00
2023-05-12T09:07:35.699Z,1979.00
2023-05-12T09:08:35.690Z,1965.00
2023-05-12T09:09:35.637Z,1951.00
2023-05-12T09:10:35.964Z,1943.00
2023-05-12T09:11:35.531Z,1942.00
2023-05-12T09:12:35.505Z,1950.00
2023-05-12T09:13:35.486Z,1948.00
2023-05-12T09:14:35.411Z,1922.00
2023-05-12T09:15:35.449Z,1934.00
2023-05-12T09:16:35.563Z,1937.00
2023-05-12T09:17:35.294Z,1934.00
2023-05-12T09:18:35.306Z,1925.00
2023-05-12T09:19:35.209Z,1880.00
2023-05-12T09:20:35.191Z,1856.00
2023-05-12T09:21:35.163Z,1913.00
2023-05-12T09:22:35.120Z,1893.00
2023-05-12T09:23:35.099Z,1772.00
2023-05-12T09:24:35.067Z,1608.00
2023-05-12T09:25:35.038Z,1416.00
2023-05-12T09:26:35.024Z,1283.00
2023-05-12T09:27:35.000Z,1270.00
2023-05-12T09:28:34.963Z,1254.00
2023-05-12T09:29:39.851Z,1160.00
2023-05-12T09:30:35.887Z,1160.00
2023-05-12T09:31:34.870Z,1030.00
2023-05-12T09:32:34.994Z,946.00
2023-05-12T09:33:34.771Z,1032.00
2023-05-12T09:34:34.767Z,910.00
2023-05-12T09:35:34.747Z,800.00
2023-05-12T09:36:34.629Z,661.00
2023-05-12T09:37:34.582Z,608.00
2023-05-12T09:38:34.623Z,613.00
2023-05-12T09:39:34.518Z,624.00
2023-05-12T09:40:34.493Z,659.00
2023-05-12T09:41:34.449Z,640.00
2023-05-12T09:42:34.387Z,637.00
2023-05-12T09:43:34.371Z,574.00
2023-05-12T09:44:34.317Z,594.00
2023-05-12T09:45:34.339Z,589.00
2023-05-12T09:46:34.302Z,609.00
2023-05-12T09:47:34.223Z,605.00
2023-05-12T09:48:34.159Z,531.00
2023-05-12T09:49:34.746Z,496.00
2023-05-12T09:50:44.314Z,489.00
2023-05-12T09:51:35.030Z,433.00
2023-05-12T09:52:34.047Z,400.00
2023-05-12T09:53:34.260Z,400.00
2023-05-12T09:54:33.983Z,400.00
2023-05-12T09:55:33.931Z,400.00
2023-05-12T09:56:33.869Z,400.00
2023-05-12T09:57:33.830Z,400.00
2023-05-12T09:58:33.783Z,400.00
2023-05-12T09:59:33.776Z,400.00
2023-05-12T10:01:33.731Z,400.00
2023-05-12T10:02:33.821Z,400.00
2023-05-12T10:03:33.611Z,420.00
2023-05-12T10:04:33.616Z,437.00
2023-05-12T10:05:33.560Z,452.00
2023-05-12T10:06:33.582Z,496.00
2023-05-12T10:07:33.484Z,500.00
2023-05-12T10:08:33.456Z,500.00
2023-05-12T10:09:33.443Z,500.00
2023-05-12T10:10:33.616Z,505.00
2023-05-12T10:11:33.372Z,536.00
2023-05-12T10:12:33.323Z,514.00
2023-05-12T10:13:33.299Z,561.00
2023-05-12T10:14:33.267Z,737.00
2023-05-12T10:15:33.219Z,757.00
2023-05-12T10:16:33.239Z,887.00
2023-05-12T10:17:33.221Z,970.00
2023-05-12T10:18:33.098Z,869.00
2023-05-12T10:19:33.059Z,658.00
2023-05-12T10:20:33.105Z,721.00
2023-05-12T10:21:32.979Z,858.00
2023-05-12T10:22:32.929Z,959.00
2023-05-12T10:23:32.890Z,1025.00
2023-05-12T10:24:32.851Z,1088.00
2023-05-12T10:25:32.883Z,1161.00
2023-05-12T10:26:32.774Z,1239.00
2023-05-12T10:27:32.723Z,1274.00
2023-05-12T10:28:32.672Z,1338.00
2023-05-12T10:29:32.730Z,1392.00
2023-05-12T10:30:32.660Z,1452.00
2023-05-12T10:31:32.627Z,1503.00
2023-05-12T10:32:32.566Z,1553.00
2023-05-12T10:33:32.463Z,1590.00
2023-05-12T10:34:32.409Z,1633.00
2023-05-12T10:35:32.349Z,1682.00
2023-05-12T10:36:32.315Z,1717.00
2023-05-12T10:37:32.251Z,1777.00
2023-05-12T10:38:32.730Z,1822.00
2023-05-12T10:39:32.167Z,1887.00
2023-05-12T10:40:32.101Z,1917.00
2023-05-12T10:41:32.064Z,1981.00
2023-05-12T10:42:32.037Z,2064.00
2023-05-12T10:43:31.964Z,2095.00
2023-05-12T10:44:32.681Z,2148.00
2023-05-12T10:45:31.888Z,2201.00
2023-05-12T10:46:31.826Z,2257.00
2023-05-12T10:47:31.882Z,2266.00
2023-05-12T10:48:31.737Z,2308.00
2023-05-12T10:49:31.675Z,2339.00
2023-05-12T10:50:31.616Z,2377.00
2023-05-12T10:51:31.568Z,2403.00
2023-05-12T10:52:31.515Z,2421.00
2023-05-12T10:53:45.089Z,2458.00
2023-05-12T10:54:32.438Z,2460.00
2023-05-12T10:55:31.464Z,2471.00
2023-05-12T10:56:31.616Z,2489.00
2023-05-12T10:57:31.717Z,2528.00
2023-05-12T10:59:31.454Z,2608.00
2023-05-12T11:00:31.449Z,2596.00
2023-05-12T11:01:31.709Z,2581.00
2023-05-12T11:02:32.323Z,2595.00
2023-05-12T11:03:32.138Z,2614.00
2023-05-12T11:04:31.285Z,2627.00
2023-05-12T11:05:31.839Z,2638.00
2023-05-12T11:06:31.271Z,2635.00
2023-05-12T11:07:32.544Z,2630.00
2023-05-12T11:08:32.095Z,2650.00
2023-05-12T11:09:31.254Z,2635.00
2023-05-12T11:10:31.388Z,2635.00
2023-05-12T11:11:31.207Z,2646.00
2023-05-12T11:12:30.896Z,2647.00
2023-05-12T11:13:30.776Z,2644.00
2023-05-12T11:14:30.744Z,2638.00
2023-05-12T11:15:30.711Z,2644.00
2023-05-12T11:16:30.691Z,2640.00
2023-05-12T11:17:30.686Z,2645.00
2023-05-12T11:18:30.666Z,2647.00
2023-05-12T11:19:30.597Z,2642.00
2023-05-12T11:20:31.234Z,2639.00
2023-05-12T11:21:30.560Z,2629.00
2023-05-12T11:22:31.370Z,2619.00
2023-05-12T11:23:30.505Z,2608.00
2023-05-12T11:24:30.504Z,2609.00
2023-05-12T11:25:30.467Z,2601.00
2023-05-12T11:26:30.441Z,2604.00
2023-05-12T11:27:30.418Z,2595.00
2023-05-12T11:28:30.417Z,2585.00
2023-05-12T11:29:30.369Z,2594.00
2023-05-12T11:30:30.533Z,2593.00
2023-05-12T11:31:30.399Z,2573.00
2023-05-12T11:32:30.648Z,2570.00
2023-05-12T11:33:30.304Z,2569.00
2023-05-12T11:34:30.293Z,2554.00
2023-05-12T11:35:30.268Z,2564.00
2023-05-12T11:36:30.246Z,2549.00
2023-05-12T11:37:30.235Z,2554.00
2023-05-12T11:38:30.215Z,2557.00
2023-05-12T11:39:30.202Z,2550.00
2023-05-12T11:40:30.182Z,2540.00
2023-05-12T11:41:30.160Z,2545.00
2023-05-12T11:42:30.158Z,2538.00
2023-05-12T11:43:30.181Z,2542.00
2023-05-12T11:44:30.101Z,2553.00
2023-05-12T11:45:30.100Z,2542.00
2023-05-12T11:46:30.362Z,2533.00
2023-05-12T11:47:30.819Z,2529.00
2023-05-12T11:48:30.057Z,2523.00
2023-05-12T11:49:30.032Z,2534.00
2023-05-12T11:50:30.022Z,2537.00
2023-05-12T11:51:30.008Z,2523.00
2023-05-12T11:52:30.008Z,2531.00
2023-05-12T11:53:29.990Z,2527.00
2023-05-12T11:54:29.993Z,2524.00
2023-05-12T11:55:29.994Z,2526.00
2023-05-12T11:56:29.994Z,2512.00
2023-05-12T11:57:29.975Z,2519.00
2023-05-12T11:58:29.977Z,2512.00
2023-05-12T11:59:29.973Z,2511.00
2023-05-12T12:00:29.957Z,2511.00
2023-05-12T12:01:29.943Z,2507.00
2023-05-12T12:02:30.085Z,2515.00
2023-05-12T12:03:30.051Z,2494.00
2023-05-12T12:04:30.128Z,2504.00
2023-05-12T12:05:29.940Z,2497.00
2023-05-12T12:06:29.950Z,2487.00
2023-05-12T12:07:29.941Z,2498.00
2023-05-12T12:08:29.957Z,2492.00
2023-05-12T12:09:29.947Z,2488.00
2023-05-12T12:10:29.958Z,2485.00
2023-05-12T12:11:29.959Z,2486.00
2023-05-12T12:12:29.961Z,2485.00
2023-05-12T12:13:30.001Z,2491.00
2023-05-12T12:14:29.993Z,2475.00
2023-05-12T12:15:30.134Z,2490.00
2023-05-12T12:16:30.036Z,2478.00
2023-05-12T12:17:30.119Z,2476.00
2023-05-12T12:18:30.020Z,2478.00
2023-05-12T12:19:30.003Z,2474.00